Adams, Tennessee
Current Conditions -  °F | °C
As of 10:35 AM on Friday 19 Dec 2014 (Local Time) from KM91 Reporting Station
Overcast Overcast  
Wind Chill: 31°   Ceiling: 4200
Heat Index: 36°   Visibility: 9mi
Dew Point: 30°   Wind: 6mph
Humidity: 81%   Direction: 80°E
Pressure: 30.27"   Gusts: NA
Location:  36.58°N, 87.07°W
Report Text: KM91 191635Z AUTO 08005KT 9SM FEW016 OVC042 02/M01 A3027 RMK
Loading
Personal Weather Stations






























Interactive Weather Map New forecast layout! Learn more

10-Day Weather Forecast

Advertisements
Track Severe Weather on mobile